createdAt,value
2023-07-24T00:01:51.550Z,98232.88
2023-07-24T00:04:20.286Z,98230.28
2023-07-24T00:06:49.088Z,98223.81
2023-07-24T00:09:17.997Z,98227.47
2023-07-24T00:11:46.800Z,98227.00
2023-07-24T00:14:15.589Z,98228.44
2023-07-24T00:16:44.577Z,98226.00
2023-07-24T00:19:14.783Z,98228.09
2023-07-24T00:21:45.995Z,98218.16
2023-07-24T00:24:14.713Z,98203.78
2023-07-24T00:26:43.437Z,98204.59
2023-07-24T00:29:12.290Z,98199.78
2023-07-24T00:31:41.120Z,98201.72
2023-07-24T00:34:13.165Z,98198.81
2023-07-24T00:36:42.677Z,98196.56
2023-07-24T00:39:11.481Z,98202.63
2023-07-24T00:41:43.695Z,98196.56
2023-07-24T00:44:12.549Z,98192.25
2023-07-24T00:46:42.332Z,98193.38
2023-07-24T00:49:13.210Z,98200.25
2023-07-24T00:51:42.723Z,98202.75
2023-07-24T00:54:11.603Z,98204.34
2023-07-24T00:56:40.718Z,98195.88
2023-07-24T00:59:10.897Z,98191.41
2023-07-24T01:01:42.372Z,98185.34
2023-07-24T01:04:11.456Z,98186.47
2023-07-24T01:06:42.129Z,98186.59
2023-07-24T01:09:11.788Z,98185.59
2023-07-24T01:11:48.625Z,98178.59
2023-07-24T01:14:28.519Z,98188.47
2023-07-24T01:17:01.232Z,98184.66
2023-07-24T01:19:39.950Z,98190.75
2023-07-24T01:22:23.277Z,98184.00
2023-07-24T01:25:19.379Z,98175.56
2023-07-24T01:27:51.579Z,98167.13
2023-07-24T01:30:22.435Z,98164.88
2023-07-24T01:32:51.872Z,98170.31
2023-07-24T01:35:21.040Z,98172.88
2023-07-24T01:37:51.171Z,98178.78
2023-07-24T01:40:22.374Z,98173.16
2023-07-24T01:42:53.282Z,98176.66
2023-07-24T01:45:34.531Z,98160.88
2023-07-24T01:48:03.388Z,98150.16
2023-07-24T01:50:32.266Z,98153.97
2023-07-24T01:53:01.398Z,98151.75
2023-07-24T01:55:30.229Z,98156.50
2023-07-24T01:58:00.513Z,98148.84
2023-07-24T02:00:29.584Z,98147.25
2023-07-24T02:03:01.421Z,98147.69
2023-07-24T02:05:33.540Z,98144.31
2023-07-24T02:08:02.567Z,98140.19
2023-07-24T02:10:31.410Z,98143.03
2023-07-24T02:13:01.712Z,98140.78
2023-07-24T02:15:30.588Z,98139.50
2023-07-24T02:17:59.364Z,98135.81
2023-07-24T02:20:28.230Z,98137.72
2023-07-24T02:22:58.417Z,98136.44
2023-07-24T02:25:28.393Z,98131.00
2023-07-24T02:27:57.115Z,98138.16
2023-07-24T02:30:27.732Z,98129.91
2023-07-24T02:32:58.422Z,98130.69
2023-07-24T02:35:27.527Z,98128.31
2023-07-24T02:37:56.292Z,98121.44
2023-07-24T02:40:25.208Z,98123.34
2023-07-24T02:42:54.030Z,98131.50
2023-07-24T02:45:22.772Z,98129.59
2023-07-24T02:47:54.259Z,98116.00
2023-07-24T02:50:23.137Z,98115.69
2023-07-24T02:52:51.891Z,98126.06
2023-07-24T02:55:20.773Z,98120.16
2023-07-24T02:57:49.581Z,98125.06
2023-07-24T03:00:20.815Z,98120.63
2023-07-24T03:02:53.414Z,98121.44
2023-07-24T03:05:23.376Z,98116.81
2023-07-24T03:07:52.147Z,98118.59
2023-07-24T03:10:22.809Z,98119.41
2023-07-24T03:12:51.760Z,98124.81
2023-07-24T03:15:21.145Z,98121.63
2023-07-24T03:17:50.039Z,98112.38
2023-07-24T03:20:22.636Z,98119.41
2023-07-24T03:22:51.729Z,98121.63
2023-07-24T03:25:20.476Z,98113.97
2023-07-24T03:28:01.544Z,98106.31
2023-07-24T03:30:30.414Z,98103.13
2023-07-24T03:33:00.163Z,98098.69
2023-07-24T03:35:30.391Z,98100.28
2023-07-24T03:37:59.394Z,98103.47
2023-07-24T03:40:28.604Z,98099.81
2023-07-24T03:42:57.561Z,98103.16
2023-07-24T03:45:26.361Z,98103.81
2023-07-24T03:47:55.214Z,98096.19
2023-07-24T03:50:26.189Z,98092.81
2023-07-24T03:52:56.381Z,98093.31
2023-07-24T03:55:25.193Z,98091.09
2023-07-24T03:57:54.179Z,98092.69
2023-07-24T04:00:23.109Z,98078.47
2023-07-24T04:02:51.949Z,98080.09
2023-07-24T04:05:21.699Z,98083.78
2023-07-24T04:07:51.262Z,98077.53
2023-07-24T04:10:21.709Z,98073.41
2023-07-24T04:12:50.489Z,98081.72
2023-07-24T04:15:51.626Z,98081.72
2023-07-24T04:18:20.409Z,98074.06
2023-07-24T04:20:54.556Z,98065.63
2023-07-24T04:23:23.323Z,98075.34
2023-07-24T04:25:53.993Z,98067.69
2023-07-24T04:28:23.231Z,98067.38
2023-07-24T04:30:53.631Z,98060.50
2023-07-24T04:33:28.269Z,98065.63
2023-07-24T04:36:01.232Z,98069.94
2023-07-24T04:39:05.590Z,98068.53
2023-07-24T04:41:35.949Z,98071.56
2023-07-24T04:44:05.363Z,98075.38
2023-07-24T04:46:34.477Z,98066.94
2023-07-24T04:49:34.180Z,98070.91
2023-07-24T04:53:18.906Z,98064.56
2023-07-24T04:55:48.758Z,98061.22
2023-07-24T04:58:19.146Z,98061.72
2023-07-24T05:00:47.929Z,98059.94
2023-07-24T05:03:18.546Z,98063.16
2023-07-24T05:05:52.002Z,98064.09
2023-07-24T05:09:42.565Z,98059.66
2023-07-24T05:12:11.400Z,98046.88
2023-07-24T05:14:41.747Z,98049.75
2023-07-24T05:17:10.542Z,98040.63
2023-07-24T05:19:39.342Z,98035.38
2023-07-24T05:22:08.931Z,98043.38
2023-07-24T05:24:37.889Z,98037.78
2023-07-24T05:27:07.452Z,98045.28
2023-07-24T05:29:36.389Z,98044.66
2023-07-24T05:33:20.905Z,98048.81
2023-07-24T05:36:17.195Z,98038.88
2023-07-24T05:38:51.126Z,98038.59
2023-07-24T05:41:20.072Z,98037.59
2023-07-24T05:43:48.947Z,98038.56
2023-07-24T05:46:17.816Z,98039.19
2023-07-24T05:48:46.642Z,98036.66
2023-07-24T05:51:46.956Z,98036.19
2023-07-24T05:54:16.804Z,98041.63
2023-07-24T05:56:45.872Z,98041.28
2023-07-24T05:59:15.420Z,98039.38
2023-07-24T06:01:44.344Z,98044.47
2023-07-24T06:04:13.262Z,98050.41
2023-07-24T06:06:43.218Z,98040.00
2023-07-24T06:09:13.680Z,98038.25
2023-07-24T06:11:42.665Z,98039.19
2023-07-24T06:14:11.542Z,98037.88
2023-07-24T06:16:40.802Z,98029.56
2023-07-24T06:19:16.317Z,98021.22
2023-07-24T06:21:45.174Z,98026.50
2023-07-24T06:24:15.558Z,98032.56
2023-07-24T06:26:44.494Z,98025.66
2023-07-24T06:29:13.344Z,98018.78
2023-07-24T06:31:42.153Z,98031.22
2023-07-24T06:34:11.081Z,98023.03
2023-07-24T06:36:39.978Z,98032.63
2023-07-24T06:39:08.656Z,98037.22
2023-07-24T06:41:38.906Z,98030.75
2023-07-24T06:44:08.391Z,98032.16
2023-07-24T06:46:37.262Z,98032.22
2023-07-24T06:49:06.177Z,98036.81
2023-07-24T06:51:35.072Z,98026.06
2023-07-24T06:54:05.857Z,98017.34
2023-07-24T06:56:35.042Z,98013.28
2023-07-24T06:59:05.395Z,98017.41
2023-07-24T07:01:34.373Z,98013.47
2023-07-24T07:04:30.813Z,98017.75
2023-07-24T07:07:02.670Z,98020.88
2023-07-24T07:09:31.998Z,98019.31
2023-07-24T07:12:02.450Z,98020.50
2023-07-24T07:14:32.734Z,98020.06
2023-07-24T07:17:01.774Z,98008.59
2023-07-24T07:19:30.990Z,98013.28
2023-07-24T07:21:59.665Z,98006.13
2023-07-24T07:24:32.446Z,98011.81
2023-07-24T07:27:01.454Z,98015.13
2023-07-24T07:29:32.599Z,98013.00
2023-07-24T07:32:01.839Z,98005.03
2023-07-24T07:34:33.664Z,97997.16
2023-07-24T07:37:02.618Z,97993.09
2023-07-24T07:39:32.125Z,97990.28
2023-07-24T07:42:12.330Z,97985.47
2023-07-24T07:44:48.438Z,97980.94
2023-07-24T07:47:17.666Z,97973.63
2023-07-24T07:49:46.476Z,97968.88
2023-07-24T07:52:18.265Z,97962.94
2023-07-24T07:54:49.900Z,97962.94
2023-07-24T07:57:18.980Z,97958.09
2023-07-24T07:59:49.200Z,97964.97
2023-07-24T08:02:18.076Z,97957.66
2023-07-24T08:04:52.378Z,97947.97
2023-07-24T08:07:21.318Z,97953.69
2023-07-24T08:09:50.157Z,97946.94
2023-07-24T08:12:19.014Z,97936.41
2023-07-24T08:14:49.228Z,97934.31
2023-07-24T08:17:18.501Z,97928.84
2023-07-24T08:19:47.807Z,97941.28
2023-07-24T08:22:16.620Z,97926.84
2023-07-24T08:24:46.189Z,97920.16
2023-07-24T08:27:15.433Z,97931.19
2023-07-24T08:29:44.519Z,97912.47
2023-07-24T08:32:15.206Z,97906.81
2023-07-24T08:34:44.243Z,97899.28
2023-07-24T08:37:14.627Z,97895.56
2023-07-24T08:39:43.533Z,97891.69
2023-07-24T08:42:14.168Z,97886.41
2023-07-24T08:44:45.497Z,97885.91
2023-07-24T08:47:18.109Z,97882.81
2023-07-24T08:49:49.540Z,97880.94
2023-07-24T08:52:34.512Z,97877.75
2023-07-24T08:55:07.694Z,97886.16
2023-07-24T08:57:36.852Z,97876.66
2023-07-24T09:00:07.312Z,97869.72
2023-07-24T09:02:38.276Z,97871.72
2023-07-24T09:05:09.358Z,97885.88
2023-07-24T09:07:39.436Z,97893.66
2023-07-24T09:10:12.074Z,97893.66
2023-07-24T09:12:43.517Z,97902.03
2023-07-24T09:15:14.300Z,97898.56
2023-07-24T09:17:53.161Z,97900.59
2023-07-24T09:23:13.815Z,97900.94
2023-07-24T09:25:46.434Z,97911.13
2023-07-24T09:28:17.347Z,97908.38
2023-07-24T09:30:57.040Z,97900.44
2023-07-24T09:33:38.140Z,97897.78
2023-07-24T09:36:09.835Z,97898.56
2023-07-24T09:38:39.725Z,97896.38
2023-07-24T09:41:10.097Z,97894.06
2023-07-24T09:43:41.460Z,97899.50
2023-07-24T09:46:12.086Z,97898.31
2023-07-24T09:49:07.613Z,97904.81
2023-07-24T09:51:34.862Z,97900.97
2023-07-24T09:54:16.854Z,97900.19
2023-07-24T09:56:51.900Z,97897.25
2023-07-24T09:59:25.910Z,97900.16
2023-07-24T10:01:56.358Z,97895.41
2023-07-24T10:04:27.190Z,97888.50
2023-07-24T10:06:57.233Z,97890.94
2023-07-24T10:09:30.365Z,97888.94
2023-07-24T10:12:00.436Z,97894.28
2023-07-24T10:14:30.330Z,97881.44
2023-07-24T10:16:59.423Z,97880.69
2023-07-24T10:19:40.162Z,97884.31
2023-07-24T10:22:09.387Z,97893.13
2023-07-24T10:24:42.263Z,97885.91
2023-07-24T10:27:11.901Z,97887.53
2023-07-24T10:29:41.022Z,97888.13
2023-07-24T10:32:20.481Z,97886.84
2023-07-24T10:35:01.589Z,97902.28
2023-07-24T10:37:38.800Z,97892.84
2023-07-24T10:40:09.449Z,97896.47
2023-07-24T10:42:38.147Z,97899.91
2023-07-24T10:45:09.045Z,97901.31
2023-07-24T10:47:38.391Z,97898.03
2023-07-24T10:50:10.734Z,97896.81
2023-07-24T10:52:39.590Z,97885.09
2023-07-24T10:55:10.489Z,97888.91
2023-07-24T10:57:39.415Z,97883.72
2023-07-24T11:00:10.705Z,97871.75
2023-07-24T11:02:39.546Z,97869.47
2023-07-24T11:05:11.262Z,97855.41
2023-07-24T11:07:40.385Z,97839.38
2023-07-24T11:10:21.314Z,97828.44
2023-07-24T11:12:51.943Z,97824.59
2023-07-24T11:15:28.972Z,97825.84
2023-07-24T11:17:57.964Z,97819.88
2023-07-24T11:20:30.810Z,97822.22
2023-07-24T11:23:00.890Z,97811.59
2023-07-24T11:25:30.388Z,97814.25
2023-07-24T11:27:59.316Z,97813.09
2023-07-24T11:30:28.059Z,97801.69
2023-07-24T11:33:00.371Z,97798.41
2023-07-24T11:35:31.284Z,97790.81
2023-07-24T11:38:00.110Z,97798.75
2023-07-24T11:40:36.016Z,97795.66
2023-07-24T11:43:05.734Z,97791.78
2023-07-24T11:45:44.311Z,97781.50
2023-07-24T11:48:14.442Z,97773.59
2023-07-24T11:50:50.187Z,97774.97
2023-07-24T11:53:24.565Z,97779.09
2023-07-24T11:55:54.861Z,97787.34
2023-07-24T11:58:24.259Z,97788.81
2023-07-24T12:00:54.224Z,97795.03
2023-07-24T12:03:23.952Z,97790.59
2023-07-24T12:05:54.980Z,97792.44
2023-07-24T12:08:33.342Z,97804.19
2023-07-24T12:11:02.565Z,97802.13
2023-07-24T12:13:33.675Z,97808.69
2023-07-24T12:16:02.689Z,97806.44
2023-07-24T12:18:31.902Z,97818.88
2023-07-24T12:21:02.038Z,97820.75
2023-07-24T12:23:30.717Z,97833.19
2023-07-24T12:25:59.426Z,97823.53
2023-07-24T12:28:28.245Z,97832.53
2023-07-24T12:31:00.668Z,97849.94
2023-07-24T12:33:29.633Z,97854.84
2023-07-24T12:35:58.403Z,97851.50
2023-07-24T12:38:28.644Z,97871.44
2023-07-24T12:40:57.288Z,97877.38
2023-07-24T12:43:26.024Z,97888.81
2023-07-24T12:45:54.775Z,97900.13
2023-07-24T12:48:23.695Z,97897.56
2023-07-24T12:50:53.168Z,97885.66
2023-07-24T12:53:22.125Z,97865.50
2023-07-24T12:55:59.335Z,97859.44
2023-07-24T12:58:28.178Z,97844.69
2023-07-24T13:00:57.215Z,97841.19
2023-07-24T13:03:26.681Z,97831.53
2023-07-24T13:05:55.636Z,97816.97
2023-07-24T13:08:27.225Z,97812.66
2023-07-24T13:11:03.482Z,97807.22
2023-07-24T13:13:32.933Z,97793.59
2023-07-24T13:16:30.705Z,97814.16
2023-07-24T13:19:02.866Z,97817.88
2023-07-24T13:21:33.193Z,97811.91
2023-07-24T13:24:50.401Z,97807.03
2023-07-24T13:27:20.606Z,97814.56
2023-07-24T13:29:49.558Z,97802.88
2023-07-24T13:32:31.501Z,97792.88
2023-07-24T13:35:03.714Z,97790.59
2023-07-24T13:37:32.446Z,97780.69
2023-07-24T13:40:01.118Z,97780.03
2023-07-24T13:42:36.384Z,97757.53
2023-07-24T13:45:32.527Z,97746.97
2023-07-24T13:48:01.304Z,97734.66
2023-07-24T13:50:30.192Z,97723.09
2023-07-24T13:52:58.960Z,97705.13
2023-07-24T13:55:31.906Z,97707.59
2023-07-24T13:58:02.569Z,97693.63
2023-07-24T14:00:33.071Z,97687.47
2023-07-24T14:03:02.630Z,97684.41
2023-07-24T14:05:34.023Z,97675.63
2023-07-24T14:08:03.017Z,97682.44
2023-07-24T14:10:32.210Z,97672.47
2023-07-24T14:13:02.889Z,97669.75
2023-07-24T14:15:32.325Z,97672.44
2023-07-24T14:18:01.182Z,97674.19
2023-07-24T14:20:30.174Z,97670.75
2023-07-24T14:22:59.196Z,97669.19
2023-07-24T14:25:31.090Z,97663.66
2023-07-24T14:28:01.495Z,97660.91
2023-07-24T14:30:30.548Z,97651.81
2023-07-24T14:32:59.737Z,97643.25
2023-07-24T14:35:34.575Z,97656.09
2023-07-24T14:38:05.468Z,97654.50
2023-07-24T14:40:35.440Z,97654.38
2023-07-24T14:43:07.832Z,97642.13
2023-07-24T14:45:37.309Z,97628.34
2023-07-24T14:48:10.059Z,97595.88
2023-07-24T14:50:45.103Z,97601.94
2023-07-24T14:53:14.677Z,97600.88
2023-07-24T14:55:46.039Z,97587.59
2023-07-24T14:58:20.161Z,97585.38
2023-07-24T15:01:15.880Z,97575.44
2023-07-24T15:03:45.774Z,97591.53
2023-07-24T15:06:14.530Z,97588.47
2023-07-24T15:08:43.336Z,97580.53
2023-07-24T15:11:12.792Z,97583.50
2023-07-24T15:13:43.116Z,97585.56
2023-07-24T15:16:11.923Z,97587.06
2023-07-24T15:18:40.703Z,97576.06
2023-07-24T15:21:10.269Z,97564.56
2023-07-24T15:23:39.221Z,97568.44
2023-07-24T15:26:08.142Z,97571.13
2023-07-24T15:28:37.967Z,97562.63
2023-07-24T15:31:11.736Z,97570.47
2023-07-24T15:33:42.499Z,97571.25
2023-07-24T15:36:13.693Z,97563.78
2023-07-24T15:39:00.616Z,97568.03
2023-07-24T15:41:30.126Z,97564.84
2023-07-24T15:43:59.264Z,97560.09
2023-07-24T15:46:33.172Z,97558.47
2023-07-24T15:49:19.726Z,97561.44
2023-07-24T15:51:50.331Z,97536.84
2023-07-24T15:54:19.025Z,97536.28
2023-07-24T15:56:48.109Z,97537.97
2023-07-24T15:59:17.793Z,97535.88
2023-07-24T16:01:49.139Z,97523.13
2023-07-24T16:04:27.522Z,97521.81
2023-07-24T16:06:57.210Z,97527.25
2023-07-24T16:09:26.088Z,97511.34
2023-07-24T16:11:54.921Z,97506.72
2023-07-24T16:14:25.848Z,97501.75
2023-07-24T16:16:56.513Z,97499.72
2023-07-24T16:19:32.893Z,97509.09
2023-07-24T16:22:55.397Z,97501.41
2023-07-24T16:25:52.909Z,97501.59
2023-07-24T16:28:22.013Z,97502.97
2023-07-24T16:30:51.082Z,97516.56
2023-07-24T16:33:24.348Z,97519.47
2023-07-24T16:36:11.817Z,97518.41
2023-07-24T16:38:41.156Z,97521.41
2023-07-24T16:41:10.196Z,97522.78
2023-07-24T16:43:40.456Z,97516.81
2023-07-24T16:46:25.768Z,97510.72
2023-07-24T16:48:57.384Z,97518.00
2023-07-24T16:51:37.643Z,97517.44
2023-07-24T16:54:06.590Z,97507.28
2023-07-24T16:56:42.069Z,97512.75
2023-07-24T16:59:11.246Z,97511.88
2023-07-24T17:01:40.525Z,97507.78
2023-07-24T17:04:11.108Z,97513.16
2023-07-24T17:06:40.221Z,97516.19
2023-07-24T17:09:09.233Z,97515.41
2023-07-24T17:11:38.608Z,97513.03
2023-07-24T17:14:08.755Z,97509.88
2023-07-24T17:16:40.150Z,97507.44
2023-07-24T17:19:12.117Z,97496.88
2023-07-24T17:21:41.878Z,97498.63
2023-07-24T17:24:12.789Z,97506.44
2023-07-24T17:26:42.597Z,97503.69
2023-07-24T17:29:11.760Z,97498.31
2023-07-24T17:31:43.895Z,97500.66
2023-07-24T17:34:14.095Z,97507.31
2023-07-24T17:36:44.100Z,97498.00
2023-07-24T17:39:12.844Z,97497.22
2023-07-24T17:41:41.781Z,97491.66
2023-07-24T17:44:10.531Z,97488.47
2023-07-24T17:46:40.958Z,97491.53
2023-07-24T17:49:09.819Z,97486.00
2023-07-24T17:51:40.798Z,97477.28
2023-07-24T17:54:09.825Z,97480.69
2023-07-24T17:56:44.686Z,97484.88
2023-07-24T17:59:14.685Z,97485.56
2023-07-24T18:01:44.730Z,97485.06
2023-07-24T18:04:15.814Z,97497.75
2023-07-24T18:06:46.616Z,97508.56
2023-07-24T18:09:21.444Z,97508.50
2023-07-24T18:11:50.950Z,97511.84
2023-07-24T18:14:21.728Z,97520.00
2023-07-24T18:16:51.425Z,97518.25
2023-07-24T18:19:21.834Z,97522.16
2023-07-24T18:21:52.533Z,97518.56
2023-07-24T18:24:22.010Z,97512.59
2023-07-24T18:26:51.138Z,97522.38
2023-07-24T18:29:20.485Z,97536.31
2023-07-24T18:31:49.827Z,97524.97
2023-07-24T18:34:20.593Z,97521.78
2023-07-24T18:36:49.433Z,97521.78
2023-07-24T18:39:19.722Z,97529.56
2023-07-24T18:41:48.447Z,97531.03
2023-07-24T18:44:18.115Z,97522.34
2023-07-24T18:46:47.008Z,97517.59
2023-07-24T18:49:15.943Z,97514.34
2023-07-24T18:51:45.668Z,97512.66
2023-07-24T18:54:15.773Z,97511.81
2023-07-24T18:56:46.927Z,97527.34
2023-07-24T18:59:17.489Z,97545.16
2023-07-24T19:01:47.480Z,97594.34
2023-07-24T19:04:16.477Z,97608.72
2023-07-24T19:06:45.648Z,97613.66
2023-07-24T19:09:14.843Z,97636.22
2023-07-24T19:11:45.104Z,97640.59
2023-07-24T19:14:14.086Z,97651.97
2023-07-24T19:16:42.811Z,97650.88
2023-07-24T19:19:12.627Z,97647.44
2023-07-24T19:21:41.566Z,97633.41
2023-07-24T19:24:23.033Z,97637.09
2023-07-24T19:26:53.564Z,97639.19
2023-07-24T19:29:22.282Z,97638.06
2023-07-24T19:31:52.193Z,97646.47
2023-07-24T19:34:21.214Z,97665.63
2023-07-24T19:36:50.064Z,97676.00
2023-07-24T19:39:18.991Z,97673.31
2023-07-24T19:41:47.801Z,97672.06
2023-07-24T19:44:18.720Z,97676.63
2023-07-24T19:46:47.751Z,97679.38
2023-07-24T19:49:16.631Z,97675.50
2023-07-24T19:51:45.458Z,97675.50
2023-07-24T19:54:14.268Z,97673.22
2023-07-24T19:56:43.093Z,97679.13
2023-07-24T19:59:11.949Z,97688.13
2023-07-24T20:01:44.641Z,97688.00
2023-07-24T20:04:14.930Z,97685.50
2023-07-24T20:06:44.222Z,97679.25
2023-07-24T20:09:14.026Z,97669.81
2023-07-24T20:11:43.260Z,97676.88
2023-07-24T20:14:12.445Z,97680.47
2023-07-24T20:16:43.250Z,97679.09
2023-07-24T20:19:12.496Z,97690.25
2023-07-24T20:21:42.614Z,97681.59
2023-07-24T20:24:13.979Z,97669.13
2023-07-24T20:26:45.735Z,97676.06
2023-07-24T20:29:15.559Z,97672.84
2023-07-24T20:31:46.781Z,97686.16
2023-07-24T20:34:16.342Z,97698.53
2023-07-24T20:36:46.163Z,97727.50
2023-07-24T20:39:18.537Z,97749.75
2023-07-24T20:41:47.573Z,97747.03
2023-07-24T20:44:16.679Z,97713.44
2023-07-24T20:46:46.880Z,97725.69
2023-07-24T20:49:15.657Z,97762.91
2023-07-24T20:51:44.477Z,97768.78
2023-07-24T20:54:13.734Z,97769.34
2023-07-24T20:56:42.856Z,97763.63
2023-07-24T20:59:11.620Z,97757.34
2023-07-24T21:01:40.416Z,97765.69
2023-07-24T21:04:10.583Z,97762.81
2023-07-24T21:06:39.436Z,97757.72
2023-07-24T21:09:08.177Z,97766.88
2023-07-24T21:11:36.993Z,97754.28
2023-07-24T21:14:05.926Z,97749.03
2023-07-24T21:16:34.881Z,97761.59
2023-07-24T21:19:03.849Z,97752.94
2023-07-24T21:21:34.335Z,97753.63
2023-07-24T21:24:03.138Z,97739.41
2023-07-24T21:26:31.863Z,97743.28
2023-07-24T21:29:00.710Z,97740.41
2023-07-24T21:31:30.803Z,97747.16
2023-07-24T21:34:00.816Z,97750.69
2023-07-24T21:36:30.356Z,97740.78
2023-07-24T21:39:02.949Z,97742.25
2023-07-24T21:41:34.104Z,97740.19
2023-07-24T21:44:04.743Z,97750.63
2023-07-24T21:46:35.453Z,97757.19
2023-07-24T21:49:08.932Z,97757.38
2023-07-24T21:51:38.760Z,97752.72
2023-07-24T21:54:10.365Z,97760.78
2023-07-24T21:56:40.316Z,97762.69
2023-07-24T21:59:10.909Z,97764.13
2023-07-24T22:01:40.024Z,97768.97
2023-07-24T22:04:11.507Z,97762.09
2023-07-24T22:06:40.427Z,97770.44
2023-07-24T22:09:10.989Z,97771.03
2023-07-24T22:11:40.455Z,97769.34
2023-07-24T22:14:09.722Z,97768.22
2023-07-24T22:16:39.033Z,97759.94
2023-07-24T22:19:08.223Z,97765.69
2023-07-24T22:21:37.378Z,97773.56
2023-07-24T22:24:07.282Z,97764.66
2023-07-24T22:26:38.261Z,97760.03
2023-07-24T22:29:07.621Z,97760.72
2023-07-24T22:31:36.781Z,97753.81
2023-07-24T22:34:05.905Z,97762.31
2023-07-24T22:36:35.342Z,97746.66
2023-07-24T22:39:07.536Z,97743.94
2023-07-24T22:41:38.220Z,97741.72
2023-07-24T22:44:08.769Z,97750.69
2023-07-24T22:46:37.917Z,97763.66
2023-07-24T22:49:07.151Z,97770.09
2023-07-24T22:51:36.476Z,97772.66
2023-07-24T22:54:06.312Z,97779.03
2023-07-24T22:56:37.010Z,97774.56
2023-07-24T22:59:22.680Z,97778.91
2023-07-24T23:01:53.916Z,97780.63
2023-07-24T23:04:25.578Z,97784.47
2023-07-24T23:06:57.016Z,97782.88
2023-07-24T23:09:26.755Z,97788.47
2023-07-24T23:12:00.100Z,97786.22
2023-07-24T23:14:31.749Z,97793.72
2023-07-24T23:17:01.374Z,97797.09
2023-07-24T23:19:30.884Z,97797.41
2023-07-24T23:22:00.297Z,97794.38
2023-07-24T23:24:29.882Z,97801.38
2023-07-24T23:27:01.020Z,97798.22
2023-07-24T23:29:30.471Z,97802.50
2023-07-24T23:31:59.980Z,97807.63
2023-07-24T23:34:31.473Z,97801.25
2023-07-24T23:37:01.053Z,97799.50
2023-07-24T23:39:30.415Z,97806.22
2023-07-24T23:42:01.210Z,97803.16
2023-07-24T23:44:30.916Z,97803.97
2023-07-24T23:47:00.399Z,97808.75
2023-07-24T23:49:29.640Z,97804.94
2023-07-24T23:51:59.200Z,97797.91
2023-07-24T23:54:28.429Z,97808.44
2023-07-24T23:56:57.655Z,97810.97
2023-07-24T23:59:27.909Z,97807.13
